Latest Coastal Weather Observations for Jervis Bay Airfield

IDN60701

Issued at 12:11 pm EDT Tuesday 22 October 2019 (issued every 10 minutes, with the page automatically refreshed every 10 minutes)

About coastal observations | Map of coastal stations | Coastal observations for NSW | Marine services | Other Formats
Station Details ID: 068264 Name: JERVIS BAY AIRFIELD AWS Lat: -35.14 Lon: 150.70 Height: 57.18 m
Data from the previous 72 hours. | See also: Recent months at Jervis Bay Airfield
Date/Time
EDT
Wind Sea
Height
m
Swell Vis
km
Cloud Weather Temp
°C
Press
hPa
Rain since
9am
mm
Dir  Spd
kts
Gust
kts
Height
m
Period
s
Dir
22/12:00pm NE 7 10 - - - - 10 Clear - 20.3 1023.9 0.0
22/11:30am NE 6 9 - - - - 10 - - 19.9 1024.5 0.0
22/11:00am NE 8 11 - - - - 10 - - 19.5 1024.6 0.0
22/10:30am NE 8 11 - - - - 10 - - 19.5 1024.9 0.0
22/10:00am NE 8 11 - - - - 10 - - 18.9 1025.0 0.0
22/09:30am NNE 7 10 - - - - 10 - - 18.1 1025.0 0.0
22/09:00am NNE 7 9 - - - - 10 - - 17.4 1024.9 0.0
22/08:30am NNE 5 7 - - - - - - - 17.1 1024.8 0.0
22/08:00am NNE 5 7 - - - - - - - 15.3 1024.8 0.0
22/07:30am NE 4 5 - - - - - - - 13.8 1024.9 0.0
22/07:00am NE 5 7 - - - - - - - 12.8 1024.6 0.0
22/06:30am ENE 5 6 - - - - - - - 11.0 1024.5 0.0
22/06:00am ENE 5 5 - - - - - - - 10.5 1024.4 0.0
22/05:30am ENE 5 5 - - - - - - - 10.5 1024.1 0.0
22/05:00am NNE 4 5 - - - - - - - 10.9 1023.9 0.0
22/04:30am NE 2 4 - - - - - - - 10.2 1023.8 0.0
22/04:00am CALM 0 0 - - - - - - - 9.8 1023.9 0.0
22/03:30am CALM 0 0 - - - - - - - 10.6 1024.1 0.0
22/03:00am W 1 3 - - - - - - - 10.7 1024.3 0.0
22/02:30am W 4 5 - - - - - - - 11.6 1024.5 0.0
22/02:00am W 5 6 - - - - - - - 11.8 1024.8 0.0
22/01:30am WSW 3 4 - - - - - - - 11.3 1025.2 0.0
22/01:00am W 5 7 - - - - - - - 12.3 1025.6 0.0
22/12:30am WSW 4 5 - - - - 10 - - 11.6 1025.9 0.0
22/12:00am WSW 2 3 - - - - 10 - - 11.9 1026.0 0.0
 
Date/Time
EDT
Wind Sea
Height
m
Swell Vis
km
Cloud Weather Temp
°C
Press
hPa
Rain since
9am
mm
Dir  Spd
kts
Gust
kts
Height
m
Period
s
Dir
21/11:30pm SW 3 4 - - - - 10 - - 12.1 1026.1 0.0
21/11:00pm W 4 5 - - - - 10 - - 12.6 1026.3 0.0
21/10:30pm WNW 3 4 - - - - 10 - - 12.3 1026.2 0.0
21/10:00pm CALM 0 0 - - - - 10 - - 12.5 1026.3 0.0
21/09:30pm ESE 1 3 - - - - 10 - - 13.5 1026.5 0.0
21/09:00pm ESE 4 4 - - - - 10 - - 13.6 1026.3 0.0
21/08:30pm E 1 4 - - - - 10 - - 13.8 1026.3 0.0
21/08:00pm E 4 5 - - - - 10 - - 14.3 1026.1 0.0
21/07:30pm ENE 4 5 - - - - 10 - - 15.3 1025.9 0.0
21/07:00pm ENE 6 7 - - - - 10 - - 16.7 1025.6 0.0
21/06:30pm ENE 7 10 - - - - 10 - - 17.4 1025.3 0.0
21/06:00pm E 9 11 - - - - 10 - - 17.9 1025.1 0.0
21/05:30pm E 9 13 - - - - 10 - - 18.4 1024.9 0.0
21/05:00pm E 10 13 - - - - 10 - - 18.6 1024.8 0.0
21/04:30pm E 9 13 - - - - 10 - - 19.1 1024.7 0.0
21/04:00pm ESE 10 14 - - - - 10 - - 19.5 1024.7 0.0
21/03:30pm E 11 14 - - - - 10 - - 19.3 1024.9 0.0
21/03:00pm E 11 16 - - - - 10 - - 19.5 1025.1 0.0
21/02:30pm ESE 10 13 - - - - 10 - - 19.7 1025.3 0.0
21/02:00pm SE 11 14 - - - - 10 - - 19.5 1025.5 0.0
21/01:30pm SE 11 15 - - - - 10 - - 19.7 1025.6 0.0
21/01:00pm SSE 11 15 - - - - 10 - - 19.5 1025.5 0.0
21/12:30pm SSE 9 13 - - - - 10 - - 19.0 1025.7 0.0
21/12:00pm S 7 11 - - - - 10 - - 19.3 1026.0 0.0
21/11:30am SSW 7 10 - - - - 10 - - 18.5 1026.3 0.0
21/11:00am SSW 8 11 - - - - 10 - - 17.8 1026.5 0.0
21/10:30am SSW 9 12 - - - - 10 - - 17.2 1026.7 0.0
21/10:00am S 9 12 - - - - 10 - - 16.7 1026.8 0.0
21/09:30am SSW 9 11 - - - - 10 - - 16.1 1026.8 0.0
21/09:00am SW 4 7 - - - - 10 - - 16.2 1026.7 0.0
21/08:30am WNW 5 6 - - - - - - - 14.6 1026.4 0.0
21/08:00am NW 4 5 - - - - - - - 14.0 1026.2 0.0
21/07:30am NNW 3 5 - - - - - - - 13.5 1026.0 0.0
21/07:00am NNW 6 8 - - - - - - - 12.4 1025.7 0.0
21/06:30am NNW 3 5 - - - - - - - 9.7 1025.4 0.0
21/06:00am WNW 2 3 - - - - - - - 9.7 1025.2 0.0
21/05:30am CALM 0 0 - - - - - - - 8.8 1025.0 0.0
21/05:00am CALM 0 0 - - - - - - - 9.4 1025.0 0.0
21/04:30am W 1 3 - - - - - - - 9.2 1024.8 0.0
21/04:00am W 3 4 - - - - - - - 9.8 1024.8 0.0
21/03:30am W 5 6 - - - - - - - 10.2 1025.0 0.0
21/03:00am W 6 6 - - - - - - - 10.4 1025.1 0.0
21/02:30am W 6 7 - - - - - - - 10.4 1025.3 0.0
21/02:00am W 6 7 - - - - - - - 10.6 1025.7 0.0
21/01:30am W 5 6 - - - - 10 - - 10.5 1025.8 0.0
21/01:00am W 7 7 - - - - 10 - - 10.8 1026.0 0.0
21/12:30am W 6 7 - - - - 10 - - 11.1 1026.1 0.0
21/12:00am W 3 5 - - - - 10 - - 11.0 1026.1 0.0
 
Date/Time
EDT
Wind Sea
Height
m
Swell Vis
km
Cloud Weather Temp
°C
Press
hPa
Rain since
9am
mm
Dir  Spd
kts
Gust
kts
Height
m
Period
s
Dir
20/11:30pm W 4 6 - - - - 10 - - 10.9 1026.1 0.0
20/11:00pm W 4 5 - - - - 10 - - 11.1 1026.0 0.0
20/10:30pm CALM 0 0 - - - - 10 - - 10.9 1025.8 0.0
20/10:00pm CALM 0 0 - - - - 10 - - 11.1 1025.8 0.0
20/09:30pm E 2 3 - - - - 10 - - 11.8 1025.6 0.0
20/09:00pm E 3 4 - - - - 10 - - 12.6 1025.2 0.0
20/08:30pm ESE 3 4 - - - - 10 - - 12.8 1024.9 0.0
20/08:00pm ESE 3 4 - - - - 10 - - 13.1 1024.3 0.0
20/07:30pm E 4 4 - - - - 10 - - 14.1 1023.8 0.0
20/07:00pm E 5 7 - - - - 10 - - 15.0 1023.3 0.0
20/06:30pm E 8 10 - - - - 10 - - 15.7 1023.0 0.0
20/06:00pm E 7 11 - - - - 10 Partly cloudy - 16.3 1022.4 0.0
20/05:30pm E 10 13 - - - - 10 - - 16.4 1022.0 0.0
20/05:00pm E 11 14 - - - - 10 - - 17.0 1021.5 0.0
20/04:30pm E 11 17 - - - - 10 - - 17.4 1021.4 0.0
20/04:00pm E 12 16 - - - - 10 - - 17.4 1021.1 0.0
20/03:30pm ESE 13 17 - - - - 10 - - 17.4 1021.0 0.0
20/03:00pm ESE 13 17 - - - - 10 - - 17.7 1020.9 0.0
20/02:30pm E 14 17 - - - - 10 - - 17.6 1020.9 0.0
20/02:00pm ESE 13 17 - - - - 10 - - 18.1 1021.0 0.0
20/01:30pm ESE 13 18 - - - - 10 - - 17.7 1021.1 0.0
20/01:00pm ESE 11 15 - - - - 10 Partly cloudy - 17.9 1021.1 0.0
20/12:30pm SE 13 16 - - - - 10 Partly cloudy - 17.1 1021.5 0.0
20/12:00pm SSE 10 14 - - - - 10 - - 17.3 1021.5 0.0
20/11:30am S 9 12 - - - - 10 - - 17.5 1021.9 0.0
20/11:00am S 11 17 - - - - 10 - - 16.9 1022.3 0.0
20/10:30am SSW 11 15 - - - - 10 - - 17.0 1022.4 0.0
20/10:00am SSW 12 17 - - - - 10 - - 16.9 1022.3 0.0
20/09:30am SW 10 15 - - - - 10 - - 16.6 1022.0 0.0
20/09:00am WSW 9 12 - - - - 10 - - 15.8 1021.7 0.0
20/08:30am WSW 7 10 - - - - 10 - - 14.6 1021.3 0.0
20/08:00am WSW 8 10 - - - - 10 - - 13.4 1021.0 0.0
20/07:30am WSW 5 7 - - - - - - - 12.0 1021.0 0.0
20/07:00am WSW 6 7 - - - - - - - 10.7 1020.5 0.0
20/06:30am WSW 7 9 - - - - - - - 9.8 1020.1 0.0
20/06:00am W 9 11 - - - - - - - 9.6 1019.7 0.0
20/05:30am W 7 8 - - - - - - - 9.3 1019.4 0.0
20/05:00am W 7 9 - - - - - - - 9.3 1019.2 0.0
20/04:30am W 8 9 - - - - - - - 9.2 1019.1 0.0
20/04:00am W 5 7 - - - - - - - 9.4 1019.0 0.0
20/03:30am WNW 5 7 - - - - - - - 9.7 1019.2 0.0
20/03:00am WNW 5 5 - - - - - - - 10.5 1019.2 0.0
20/02:30am W 5 5 - - - - - - - 10.7 1019.2 0.0
20/02:00am W 5 6 - - - - - - - 11.0 1019.4 0.0
20/01:30am W 5 6 - - - - - - - 11.0 1019.6 0.0
20/01:00am W 5 6 - - - - - - - 11.0 1019.7 0.0
20/12:30am NW 3 5 - - - - - - - 10.9 1019.6 0.0
20/12:00am NW 2 4 - - - - - - - 12.4 1019.6 0.0
 
Date/Time
EDT
Wind Sea
Height
m
Swell Vis
km
Cloud Weather Temp
°C
Press
hPa
Rain since
9am
mm
Dir  Spd
kts
Gust
kts
Height
m
Period
s
Dir
19/11:30pm WSW 3 4 - - - - - Partly cloudy - 13.2 1019.5 0.0
19/11:00pm SSE 8 11 - - - - - Partly cloudy - 14.3 1019.2 0.0
19/10:30pm SSE 8 11 - - - - - Partly cloudy - 14.2 1019.1 0.0
19/10:00pm SSE 11 13 - - - - 10 Cloudy - 14.6 1018.7 0.0
19/09:30pm SSE 9 13 - - - - 10 Partly cloudy - 14.7 1018.3 0.0
19/09:00pm S 10 13 - - - - 10 Cloudy - 14.5 1017.9 0.0
19/08:30pm SSE 13 17 - - - - 10 Partly cloudy - 14.3 1017.2 0.0
19/08:00pm S 13 17 - - - - 10 Partly cloudy - 14.3 1016.5 0.0
19/07:30pm S 14 21 - - - - 10 Partly cloudy - 15.0 1016.1 0.0
19/07:00pm S 13 20 - - - - 10 Partly cloudy - 15.1 1015.2 0.0
19/06:30pm S 13 19 - - - - 10 Partly cloudy - 15.5 1014.6 0.0
19/06:00pm S 18 23 - - - - 10 Partly cloudy - 16.2 1013.7 0.0
19/05:30pm S 18 24 - - - - 10 Partly cloudy - 16.5 1013.1 0.0
19/05:00pm S 17 24 - - - - 10 Partly cloudy - 17.1 1012.4 0.0
19/04:30pm S 14 19 - - - - 10 Partly cloudy - 18.3 1011.6 0.0
19/04:00pm S 14 21 - - - - 10 Partly cloudy - 19.5 1010.8 0.0
19/03:30pm WSW 16 27 - - - - 10 Partly cloudy - 22.6 1010.2 0.0
19/03:00pm WNW 17 28 - - - - 10 Cloudy - 23.5 1010.0 0.0
19/02:30pm W 19 34 - - - - 10 Partly cloudy - 24.2 1009.8 0.0
19/02:00pm W 19 35 - - - - 10 Partly cloudy - 25.6 1010.0 0.0
19/01:30pm W 17 28 - - - - 10 Partly cloudy - 25.0 1009.7 0.0
19/01:00pm W 20 30 - - - - 10 Partly cloudy - 25.4 1009.7 0.0
19/12:39pm W 18 30 - - - - 10 - - 25.7 1009.9 0.0
19/12:30pm W 15 23 - - - - 10 - - 25.6 1010.0 0.0

Other formats

Comma delimited format used in spreadsheet applications
http://www.bom.gov.au/fwo/IDN60701/IDN60701.94751.axf

JavaScript Object Notation format (JSON) in row-major order
http://www.bom.gov.au/fwo/IDN60701/IDN60701.94751.json

Data quality

Most of these data are generated automatically and are frequently updated. Quality checks on data are not normally performed. It is possible for incorrect values to appear. Refer to information at About Latest Weather Observations and please check the disclaimer before using these data.